Time;durP1;ratioP1;P1;durP2;ratioP2;P2;SDS_P1;SDS_P2;PMS_P1;PMS_P2;Temp;Humidity;BMP_temperature;BMP_pressure;BME280_temperature;BME280_humidity;BME280_pressure;Samples;Min_cycle;Max_cycle;Signal;HPM_P1;HPM_P2
2021/05/12 00:00:19;;;;;;;227.23;77.70;;;12.20;99.90;;;;;;5060367;28;20117;-74
2021/05/12 00:02:48;;;;;;;241.93;82.93;;;12.30;99.90;;;;;;5002062;28;20048;-74
2021/05/12 00:05:18;;;;;;;244.55;74.95;;;12.30;99.90;;;;;;5033773;28;20156;-74
2021/05/12 00:07:46;;;;;;;221.90;70.47;;;12.30;99.90;;;;;;5057505;28;20052;-73
2021/05/12 00:10:14;;;;;;;165.20;60.00;;;12.20;99.90;;;;;;5064028;28;20477;-73
2021/05/12 00:12:42;;;;;;;143.23;53.65;;;12.30;99.90;;;;;;5047588;28;20284;-73
2021/05/12 00:15:18;;;;;;;94.78;39.22;;;12.30;99.90;;;;;;5063715;28;20056;-73
2021/05/12 00:17:48;;;;;;;72.93;32.85;;;12.20;99.90;;;;;;5049388;28;20044;-73
2021/05/12 00:20:21;;;;;;;46.47;25.08;;;12.20;99.90;;;;;;5065453;28;20091;-73
2021/05/12 00:25:22;;;;;;;42.13;21.70;;;12.20;99.90;;;;;;5047974;28;20044;-74
2021/05/12 00:27:49;;;;;;;26.80;16.48;;;12.20;99.90;;;;;;5083035;28;20058;-74
2021/05/12 00:30:19;;;;;;;19.48;11.68;;;12.10;99.90;;;;;;5050472;28;20044;-74
2021/05/12 00:32:46;;;;;;;26.13;14.23;;;12.10;99.90;;;;;;5072108;28;20056;-75
2021/05/12 00:35:13;;;;;;;24.30;14.35;;;12.00;99.90;;;;;;5060318;28;20025;-75
2021/05/12 00:37:41;;;;;;;23.27;13.52;;;12.00;99.90;;;;;;5036841;28;20144;-75
2021/05/12 00:40:11;;;;;;;24.27;14.95;;;11.80;99.90;;;;;;5031026;28;20051;-75
2021/05/12 00:42:39;;;;;;;24.92;15.70;;;11.70;99.90;;;;;;5030606;28;20115;-75
2021/05/12 00:45:10;;;;;;;27.23;17.23;;;11.60;99.90;;;;;;5062945;28;20119;-75
2021/05/12 00:47:37;;;;;;;28.60;18.20;;;11.60;99.90;;;;;;5030617;28;20040;-76
2021/05/12 00:50:06;;;;;;;32.38;20.50;;;11.60;99.90;;;;;;5014550;28;20079;-76
2021/05/12 00:52:32;;;;;;;25.02;16.23;;;11.60;99.90;;;;;;5034534;28;20114;-75
2021/05/12 00:54:59;;;;;;;24.48;16.90;;;11.60;99.90;;;;;;5033505;28;20056;-75
2021/05/12 00:57:26;;;;;;;40.45;24.05;;;11.60;99.90;;;;;;5049893;28;20120;-76
2021/05/12 00:59:54;;;;;;;38.05;22.25;;;11.70;99.90;;;;;;5050891;28;20208;-75
2021/05/12 01:02:21;;;;;;;47.80;25.15;;;11.80;99.90;;;;;;5048094;28;20052;-74
2021/05/12 01:04:49;;;;;;;44.90;24.42;;;11.70;99.90;;;;;;5044961;28;20083;-74
2021/05/12 01:07:16;;;;;;;48.65;26.90;;;11.80;99.90;;;;;;5049147;28;20735;-74
2021/05/12 01:09:43;;;;;;;48.92;27.63;;;11.70;99.90;;;;;;5048644;28;20049;-74
2021/05/12 01:12:10;;;;;;;53.85;29.50;;;11.70;99.90;;;;;;5059933;28;20098;-73
2021/05/12 01:14:37;;;;;;;59.90;30.65;;;11.70;99.90;;;;;;5047394;28;20052;-74
2021/05/12 01:17:04;;;;;;;62.30;32.25;;;11.70;99.90;;;;;;5048101;28;20170;-74
2021/05/12 01:19:33;;;;;;;64.97;31.05;;;11.70;99.90;;;;;;5032366;28;20052;-74
2021/05/12 01:22:00;;;;;;;66.45;31.85;;;11.70;99.90;;;;;;5049536;28;20076;-74
2021/05/12 01:24:27;;;;;;;67.13;32.22;;;11.70;99.90;;;;;;5067882;28;20074;-74
2021/05/12 01:26:54;;;;;;;64.13;32.50;;;11.80;99.90;;;;;;5048301;28;20045;-74
2021/05/12 01:29:22;;;;;;;69.60;34.47;;;11.80;99.90;;;;;;5049855;28;20051;-74
2021/05/12 01:31:53;;;;;;;72.80;35.85;;;11.80;99.90;;;;;;5048774;28;20040;-74
2021/05/12 01:34:21;;;;;;;66.72;35.65;;;11.80;99.90;;;;;;5033260;28;20044;-74
2021/05/12 01:36:50;;;;;;;60.65;34.45;;;11.80;99.90;;;;;;5032259;28;20052;-74
2021/05/12 01:39:19;;;;;;;57.85;32.45;;;11.80;99.90;;;;;;5042945;28;20040;-74
2021/05/12 01:41:46;;;;;;;63.83;32.50;;;11.80;99.90;;;;;;5049126;28;20048;-74
2021/05/12 01:44:13;;;;;;;64.55;35.10;;;11.70;99.90;;;;;;5049168;28;20676;-74
2021/05/12 01:46:43;;;;;;;67.40;36.25;;;11.70;99.90;;;;;;5045375;28;20404;-74
2021/05/12 01:49:11;;;;;;;62.67;34.45;;;11.70;99.90;;;;;;5067367;28;20124;-73
2021/05/12 01:51:40;;;;;;;72.35;35.50;;;11.70;99.90;;;;;;5048767;28;20036;-74
2021/05/12 01:54:09;;;;;;;72.60;37.30;;;11.70;99.90;;;;;;5048963;28;20045;-74
2021/05/12 01:56:38;;;;;;;70.07;37.28;;;11.70;99.90;;;;;;5031573;28;20044;-74
2021/05/12 01:59:06;;;;;;;81.03;41.10;;;11.70;99.90;;;;;;5034335;28;20070;-74
2021/05/12 02:01:34;;;;;;;73.53;38.42;;;11.70;99.90;;;;;;5029069;28;20083;-74
2021/05/12 02:04:10;;;;;;;73.32;38.00;;;11.70;99.90;;;;;;5031514;28;20132;-73
2021/05/12 02:06:37;;;;;;;71.22;38.78;;;11.60;99.90;;;;;;5016065;28;20056;-74
2021/05/12 02:09:08;;;;;;;66.10;34.80;;;11.70;99.90;;;;;;5032058;28;20124;-74
2021/05/12 02:11:38;;;;;;;72.63;38.83;;;11.60;99.90;;;;;;5046839;28;20178;-74
2021/05/12 02:14:06;;;;;;;77.72;42.88;;;11.70;99.90;;;;;;5015762;28;20056;-73
2021/05/12 02:16:34;;;;;;;80.20;42.53;;;11.70;99.90;;;;;;5031359;28;20447;-74
2021/05/12 02:19:01;;;;;;;74.20;41.63;;;11.70;99.90;;;;;;5066766;28;20062;-74
2021/05/12 02:21:28;;;;;;;84.57;44.13;;;11.70;99.90;;;;;;5046890;28;20111;-73
2021/05/12 02:23:56;;;;;;;90.15;45.22;;;11.70;99.90;;;;;;5048836;28;20106;-74
2021/05/12 02:26:23;;;;;;;86.80;45.58;;;11.70;99.90;;;;;;5047887;28;20139;-74
2021/05/12 02:28:50;;;;;;;94.60;48.95;;;11.60;99.90;;;;;;5032012;28;20123;-74
2021/05/12 02:31:17;;;;;;;106.32;52.60;;;11.70;99.90;;;;;;5030937;28;20060;-74
2021/05/12 02:33:44;;;;;;;101.03;47.20;;;11.70;99.90;;;;;;5048065;28;20135;-74
2021/05/12 02:36:11;;;;;;;96.45;50.53;;;11.70;99.90;;;;;;5030951;28;20044;-74
2021/05/12 02:38:38;;;;;;;96.30;50.25;;;11.70;99.90;;;;;;5031629;28;20052;-74
2021/05/12 02:41:07;;;;;;;102.00;48.75;;;11.60;99.90;;;;;;5062342;28;20083;-74
2021/05/12 02:43:34;;;;;;;100.65;54.00;;;11.60;99.90;;;;;;5045961;28;20435;-74
2021/05/12 02:46:00;;;;;;;89.75;47.78;;;11.70;99.90;;;;;;5028082;28;20048;-74
2021/05/12 02:48:28;;;;;;;106.80;53.42;;;11.60;99.90;;;;;;5039356;28;20097;-73
2021/05/12 02:50:55;;;;;;;105.00;52.67;;;11.70;99.90;;;;;;5030848;28;20059;-73
2021/05/12 02:53:22;;;;;;;119.85;57.75;;;11.60;99.90;;;;;;5047823;28;20048;-73
2021/05/12 02:55:49;;;;;;;116.13;59.17;;;11.60;99.90;;;;;;5047157;28;20086;-76
2021/05/12 02:58:18;;;;;;;112.28;56.83;;;11.60;99.90;;;;;;5031706;28;20150;-74
2021/05/12 03:00:45;;;;;;;95.63;53.83;;;11.60;99.90;;;;;;5030203;28;20048;-73
2021/05/12 03:03:12;;;;;;;104.97;54.65;;;11.70;99.90;;;;;;5046726;28;20113;-74
2021/05/12 03:05:40;;;;;;;112.05;57.92;;;11.60;99.90;;;;;;5030787;28;20118;-73
2021/05/12 03:08:08;;;;;;;119.00;59.80;;;11.60;99.90;;;;;;5030695;28;20060;-73
2021/05/12 03:10:36;;;;;;;109.13;55.88;;;11.60;99.90;;;;;;5030213;28;20049;-74
2021/05/12 03:13:05;;;;;;;97.57;51.13;;;11.60;99.90;;;;;;5032074;28;20048;-74
2021/05/12 03:15:32;;;;;;;122.88;63.13;;;11.60;99.90;;;;;;5046745;28;20048;-74
2021/05/12 03:18:00;;;;;;;124.22;61.85;;;11.50;99.90;;;;;;5048879;28;20425;-73
2021/05/12 03:20:29;;;;;;;138.52;64.05;;;11.60;99.90;;;;;;5029721;28;20068;-73
2021/05/12 03:22:57;;;;;;;113.55;60.25;;;11.70;99.90;;;;;;5031233;28;20171;-74
2021/05/12 03:25:24;;;;;;;125.32;64.03;;;11.60;99.90;;;;;;5030717;28;20131;-76
2021/05/12 03:27:52;;;;;;;122.35;61.28;;;11.50;99.90;;;;;;5047859;28;20049;-74
2021/05/12 03:30:32;;;;;;;116.03;59.10;;;11.60;99.90;;;;;;5064542;28;20131;-74
2021/05/12 03:33:00;;;;;;;119.10;60.40;;;11.50;99.90;;;;;;5030547;28;20052;-74
2021/05/12 03:35:28;;;;;;;129.20;65.20;;;11.50;99.90;;;;;;5029604;28;20048;-74
2021/05/12 03:37:56;;;;;;;117.40;62.95;;;11.50;99.90;;;;;;5059402;28;20138;-73
2021/05/12 03:40:24;;;;;;;126.85;66.43;;;11.50;99.90;;;;;;5033402;28;20084;-73
2021/05/12 03:42:52;;;;;;;133.38;70.72;;;11.50;99.90;;;;;;5046388;28;20469;-75
2021/05/12 03:45:19;;;;;;;125.53;66.43;;;11.50;99.90;;;;;;5061384;28;20508;-74
2021/05/12 03:47:47;;;;;;;116.95;61.88;;;11.50;99.90;;;;;;5046759;28;20246;-73
2021/05/12 03:50:16;;;;;;;121.78;64.45;;;11.50;99.90;;;;;;5013367;28;20400;-75
2021/05/12 03:52:44;;;;;;;120.60;65.93;;;11.40;99.90;;;;;;5047367;28;20051;-76
2021/05/12 03:55:13;;;;;;;135.77;70.55;;;11.50;99.90;;;;;;5064291;28;20060;-75
2021/05/12 03:57:41;;;;;;;132.27;70.05;;;11.50;99.90;;;;;;5046937;28;20049;-75
2021/05/12 04:00:09;;;;;;;125.50;66.95;;;11.50;99.90;;;;;;5029773;28;20052;-75
2021/05/12 04:02:42;;;;;;;132.70;69.90;;;11.50;99.90;;;;;;5061815;28;20504;-75
2021/05/12 04:05:12;;;;;;;143.00;71.60;;;11.40;99.90;;;;;;5029524;28;20048;-73
2021/05/12 04:07:39;;;;;;;139.57;72.57;;;11.40;99.90;;;;;;5030321;28;20118;-73
2021/05/12 04:10:08;;;;;;;116.95;62.53;;;11.50;99.90;;;;;;5046921;28;20150;-73
2021/05/12 04:12:35;;;;;;;101.50;58.42;;;11.40;99.90;;;;;;5044375;28;20290;-75
2021/05/12 04:15:04;;;;;;;105.30;60.67;;;11.30;99.90;;;;;;5028231;28;20059;-73
2021/05/12 04:17:31;;;;;;;109.45;62.97;;;11.30;99.90;;;;;;5046214;28;20086;-75
2021/05/12 04:19:58;;;;;;;117.20;66.22;;;11.30;99.90;;;;;;5046902;28;20282;-74
2021/05/12 04:22:27;;;;;;;119.22;66.57;;;11.30;99.90;;;;;;5046196;28;20432;-76
2021/05/12 04:24:54;;;;;;;115.78;65.70;;;11.40;99.90;;;;;;5030570;28;20052;-73
2021/05/12 04:27:21;;;;;;;112.55;66.03;;;11.40;99.90;;;;;;5033520;28;20520;-75
2021/05/12 04:29:49;;;;;;;113.05;63.45;;;11.40;99.90;;;;;;5033600;28;20489;-73
2021/05/12 04:32:16;;;;;;;109.13;63.72;;;11.30;99.90;;;;;;5049556;28;20045;-75
2021/05/12 04:34:43;;;;;;;100.35;58.90;;;11.30;99.90;;;;;;5068323;28;20072;-75
2021/05/12 04:37:09;;;;;;;110.53;63.63;;;11.30;99.90;;;;;;5046344;28;20136;-75
2021/05/12 04:39:37;;;;;;;110.30;63.28;;;11.30;99.90;;;;;;5050565;28;20118;-75
2021/05/12 04:42:04;;;;;;;96.20;58.90;;;11.30;99.90;;;;;;5063479;28;20138;-75
2021/05/12 04:44:31;;;;;;;114.78;65.90;;;11.30;99.90;;;;;;5049609;28;20126;-75
2021/05/12 04:46:58;;;;;;;122.35;69.45;;;11.30;99.90;;;;;;5049643;28;20105;-75
2021/05/12 04:49:26;;;;;;;120.30;67.55;;;11.40;99.90;;;;;;5050380;28;20052;-75
2021/05/12 04:51:53;;;;;;;116.68;67.60;;;11.40;99.90;;;;;;5049740;28;20044;-75
2021/05/12 04:54:20;;;;;;;111.00;64.63;;;11.40;99.90;;;;;;5050276;28;20064;-75
2021/05/12 04:56:48;;;;;;;112.63;65.63;;;11.40;99.90;;;;;;5032893;28;20470;-75
2021/05/12 04:59:16;;;;;;;132.30;69.82;;;11.40;99.90;;;;;;5033942;28;20084;-76
2021/05/12 05:01:43;;;;;;;135.43;73.05;;;11.40;99.90;;;;;;5016302;28;20048;-73
2021/05/12 05:04:12;;;;;;;138.45;75.28;;;11.30;99.90;;;;;;5032441;28;20037;-76
2021/05/12 05:06:39;;;;;;;138.93;75.97;;;11.40;99.90;;;;;;5033054;28;20040;-76
2021/05/12 05:09:07;;;;;;;112.30;68.72;;;11.40;99.90;;;;;;5017931;28;20045;-73
2021/05/12 05:11:34;;;;;;;119.43;67.28;;;11.50;99.90;;;;;;5048097;28;20052;-76
2021/05/12 05:14:02;;;;;;;122.78;69.90;;;11.40;99.90;;;;;;5066169;28;20044;-75
2021/05/12 05:16:29;;;;;;;124.43;72.30;;;11.40;99.90;;;;;;5030407;28;20049;-73
2021/05/12 05:18:56;;;;;;;111.78;64.35;;;11.40;99.90;;;;;;5030199;28;20127;-73
2021/05/12 05:21:23;;;;;;;102.13;62.53;;;11.30;99.90;;;;;;5031280;28;20055;-76
2021/05/12 05:23:51;;;;;;;120.32;67.75;;;11.30;99.90;;;;;;5049180;28;20461;-74
2021/05/12 05:26:18;;;;;;;106.28;61.08;;;11.30;99.90;;;;;;5032090;28;20045;-75
2021/05/12 05:28:46;;;;;;;95.65;58.85;;;11.30;99.90;;;;;;5016223;28;20056;-74
2021/05/12 05:31:13;;;;;;;103.28;61.25;;;11.30;99.90;;;;;;5048278;28;20078;-74
2021/05/12 05:33:58;;;;;;;;;;;11.30;99.90;;;;;;5052532;28;20627;-74
2021/05/12 05:36:43;;;;;;;101.40;58.17;;;11.20;99.90;;;;;;5066224;28;20106;-74
2021/05/12 05:39:35;;;;;;;99.43;59.25;;;11.30;99.90;;;;;;5066679;28;20377;-75
2021/05/12 05:42:21;;;;;;;86.38;52.60;;;11.30;99.90;;;;;;5033417;28;20098;-74
2021/05/12 05:45:15;;;;;;;101.80;61.70;;;11.30;99.90;;;;;;5021677;28;20045;-74
2021/05/12 05:48:20;;;;;;;100.53;59.72;;;11.30;99.90;;;;;;4984346;28;20487;-74
2021/05/12 05:51:05;;;;;;;93.07;55.42;;;11.40;99.90;;;;;;4990880;28;20056;-75
2021/05/12 05:53:51;;;;;;;104.35;59.92;;;11.30;99.90;;;;;;5027963;28;20059;-74
2021/05/12 05:56:37;;;;;;;95.45;55.85;;;11.30;99.90;;;;;;5035923;28;20044;-75
2021/05/12 05:59:23;;;;;;;86.72;54.78;;;11.30;99.90;;;;;;5048782;28;20063;-74
2021/05/12 06:02:08;;;;;;;93.38;57.15;;;11.30;99.90;;;;;;5059947;28;20036;-75
2021/05/12 06:04:54;;;;;;;100.93;62.00;;;11.30;99.90;;;;;;5033479;28;20404;-75
2021/05/12 06:07:40;;;;;;;;;;;11.20;99.90;;;;;;5048105;28;20047;-75
2021/05/12 06:10:26;;;;;;;97.55;57.63;;;11.30;99.90;;;;;;5047522;28;19920;-74
2021/05/12 06:13:11;;;;;;;87.15;54.22;;;11.30;99.90;;;;;;5066299;28;20040;-75
2021/05/12 06:15:59;;;;;;;87.47;55.92;;;11.30;99.90;;;;;;5069164;28;20044;-75
2021/05/12 06:18:52;;;;;;;87.63;53.83;;;11.30;99.90;;;;;;5041438;28;20527;-76
2021/05/12 06:21:38;;;;;;;86.55;51.50;;;11.30;99.90;;;;;;5051872;28;20061;-76
2021/05/12 06:24:44;;;;;;;88.20;55.25;;;11.30;99.90;;;;;;4968618;28;20062;-74
2021/05/12 06:27:29;;;;;;;98.13;58.80;;;11.40;99.90;;;;;;5044238;28;20061;-74
2021/05/12 06:30:15;;;;;;;94.53;55.22;;;11.40;99.90;;;;;;5066052;28;20052;-75
2021/05/12 06:33:07;;;;;;;88.30;55.13;;;11.40;99.90;;;;;;5045472;28;20117;-75
2021/05/12 06:35:53;;;;;;;93.60;56.33;;;11.40;99.90;;;;;;5038593;28;20121;-75
2021/05/12 06:38:38;;;;;;;86.57;54.65;;;11.50;99.90;;;;;;5033922;28;20045;-75
2021/05/12 06:41:06;;;;;;;86.22;55.90;;;11.40;99.90;;;;;;5047857;28;20071;-75
2021/05/12 06:43:33;;;;;;;98.63;60.40;;;11.40;99.90;;;;;;5031061;28;20423;-75
2021/05/12 06:46:00;;;;;;;104.32;61.70;;;11.50;99.90;;;;;;5047708;28;20079;-75
2021/05/12 06:48:27;;;;;;;104.55;62.22;;;11.50;99.90;;;;;;5026870;28;20043;-75
2021/05/12 06:50:55;;;;;;;92.75;58.47;;;11.50;99.90;;;;;;5027107;28;20421;-75
2021/05/12 06:53:26;;;;;;;91.80;58.38;;;11.50;99.90;;;;;;5028241;28;20424;-75
2021/05/12 06:55:54;;;;;;;94.03;56.35;;;11.50;99.90;;;;;;5039008;28;20064;-75
2021/05/12 06:58:21;;;;;;;77.45;49.22;;;11.60;99.90;;;;;;5051341;28;20560;-75
2021/05/12 07:00:50;;;;;;;82.85;53.42;;;11.60;99.90;;;;;;4999452;28;20083;-75
2021/05/12 07:03:20;;;;;;;78.18;51.17;;;11.50;99.90;;;;;;5042986;28;20041;-75
2021/05/12 07:05:52;;;;;;;82.18;50.45;;;11.50;99.90;;;;;;5047344;28;20128;-75
2021/05/12 07:08:20;;;;;;;87.88;54.20;;;11.40;99.90;;;;;;5045245;28;20048;-75
2021/05/12 07:10:51;;;;;;;84.22;53.08;;;11.50;99.90;;;;;;5045075;28;20136;-75
2021/05/12 07:13:18;;;;;;;72.90;48.58;;;11.60;99.90;;;;;;5026840;28;20044;-75
2021/05/12 07:15:46;;;;;;;69.25;45.17;;;11.60;99.90;;;;;;5029645;28;20056;-74
2021/05/12 07:18:13;;;;;;;72.60;48.20;;;11.60;99.90;;;;;;5027793;28;20045;-75
2021/05/12 07:20:39;;;;;;;70.15;47.95;;;11.70;99.90;;;;;;5022162;28;20066;-75
2021/05/12 07:23:09;;;;;;;73.28;45.83;;;11.70;99.90;;;;;;5022449;28;20538;-75
2021/05/12 07:25:38;;;;;;;70.13;49.35;;;11.60;99.90;;;;;;5060917;28;20045;-74
2021/05/12 07:28:05;;;;;;;75.43;49.92;;;11.60;99.90;;;;;;5026380;28;20072;-74
2021/05/12 07:30:32;;;;;;;78.43;50.30;;;11.70;99.90;;;;;;5034260;28;20464;-74
2021/05/12 07:33:00;;;;;;;75.57;48.88;;;11.80;99.90;;;;;;5046516;28;20045;-74
2021/05/12 07:35:28;;;;;;;71.40;47.30;;;12.10;99.90;;;;;;5029808;28;20164;-74
2021/05/12 07:37:55;;;;;;;68.85;44.72;;;12.10;99.90;;;;;;5029370;28;20055;-74
2021/05/12 07:40:22;;;;;;;70.75;45.65;;;12.00;99.90;;;;;;5063158;28;20056;-74
2021/05/12 07:42:50;;;;;;;62.60;43.75;;;12.20;99.90;;;;;;5029580;28;20064;-75
2021/05/12 07:45:17;;;;;;;58.08;41.55;;;12.00;99.90;;;;;;5063623;28;20052;-75
2021/05/12 07:48:10;;;;;;;63.67;40.42;;;12.00;99.90;;;;;;5032965;28;20410;-75
2021/05/12 07:50:39;;;;;;;60.15;42.60;;;12.10;99.90;;;;;;5045569;28;20048;-74
2021/05/12 07:53:07;;;;;;;56.20;40.20;;;12.00;99.90;;;;;;5029783;28;20376;-74
2021/05/12 07:55:35;;;;;;;66.43;41.70;;;12.10;99.90;;;;;;5028649;28;20120;-74
2021/05/12 07:58:03;;;;;;;56.97;38.30;;;12.20;99.90;;;;;;5046892;28;20066;-74
2021/05/12 08:00:32;;;;;;;56.92;40.47;;;12.20;99.90;;;;;;5063216;28;20056;-75
2021/05/12 08:03:02;;;;;;;59.15;41.78;;;12.50;99.90;;;;;;5044676;28;20450;-75
2021/05/12 08:05:29;;;;;;;55.22;40.58;;;12.60;99.90;;;;;;5028294;28;20137;-75
2021/05/12 08:07:56;;;;;;;54.53;40.60;;;12.60;99.90;;;;;;5012428;28;20416;-74
2021/05/12 08:10:23;;;;;;;56.75;41.10;;;12.60;99.90;;;;;;5045310;28;20088;-74
2021/05/12 08:12:50;;;;;;;58.20;43.67;;;12.70;99.90;;;;;;5012777;28;20048;-75
2021/05/12 08:15:17;;;;;;;61.38;41.25;;;12.50;99.90;;;;;;5044835;28;20525;-74
2021/05/12 08:17:44;;;;;;;59.47;40.85;;;12.50;99.90;;;;;;5046384;28;20052;-75
2021/05/12 08:20:11;;;;;;;56.13;39.92;;;12.50;99.90;;;;;;5028927;28;20059;-75
2021/05/12 08:22:38;;;;;;;59.38;42.40;;;12.50;99.90;;;;;;5063923;28;20084;-75
2021/05/12 08:25:05;;;;;;;49.00;36.53;;;12.60;99.90;;;;;;5045422;28;20048;-75
2021/05/12 08:27:32;;;;;;;50.33;35.83;;;12.70;99.90;;;;;;5046370;28;20063;-75
2021/05/12 08:30:00;;;;;;;47.88;36.22;;;12.90;99.90;;;;;;5046002;28;20056;-74
2021/05/12 08:32:28;;;;;;;51.67;39.17;;;13.10;99.90;;;;;;5011808;28;20053;-75
2021/05/12 08:34:58;;;;;;;43.85;34.17;;;13.30;99.90;;;;;;5046097;28;20057;-74
2021/05/12 08:37:25;;;;;;;42.35;34.05;;;13.40;99.90;;;;;;5028793;28;20102;-74
2021/05/12 08:39:52;;;;;;;40.65;32.17;;;13.50;99.90;;;;;;5030069;28;20070;-74
2021/05/12 08:42:20;;;;;;;38.53;29.75;;;13.50;99.90;;;;;;5045632;28;20189;-75
2021/05/12 08:44:50;;;;;;;42.33;33.65;;;13.50;99.90;;;;;;5061091;28;20060;-75
2021/05/12 08:47:21;;;;;;;39.42;31.77;;;13.70;99.90;;;;;;5028217;28;20501;-74
2021/05/12 08:49:51;;;;;;;36.90;30.05;;;14.00;99.90;;;;;;5028722;28;20045;-75
2021/05/12 08:52:18;;;;;;;34.30;28.95;;;14.10;99.90;;;;;;5027039;28;20077;-74
2021/05/12 08:54:48;;;;;;;34.67;27.33;;;14.20;99.90;;;;;;5044272;28;20268;-74
2021/05/12 08:57:15;;;;;;;36.40;27.33;;;14.20;99.90;;;;;;5063646;28;20064;-74
2021/05/12 08:59:42;;;;;;;35.33;26.95;;;14.10;99.90;;;;;;5028529;28;20520;-74
2021/05/12 09:02:10;;;;;;;42.53;29.88;;;14.20;99.90;;;;;;5028017;28;20469;-74
2021/05/12 09:04:38;;;;;;;38.97;29.13;;;14.30;99.90;;;;;;5045030;28;20146;-74
2021/05/12 09:07:05;;;;;;;29.48;24.80;;;14.40;99.90;;;;;;5028044;28;20172;-74
2021/05/12 09:09:32;;;;;;;31.85;26.63;;;14.30;99.90;;;;;;5011745;28;20053;-74
2021/05/12 09:11:59;;;;;;;32.13;27.85;;;14.30;99.90;;;;;;5045143;28;20054;-74
2021/05/12 09:14:33;;;;;;;32.38;27.08;;;14.40;99.90;;;;;;5030663;28;20048;-75
2021/05/12 09:17:01;;;;;;;31.77;26.67;;;14.60;99.90;;;;;;5047721;28;20048;-74
2021/05/12 09:19:29;;;;;;;28.98;25.88;;;14.70;99.90;;;;;;5048849;28;20060;-72
2021/05/12 09:22:01;;;;;;;34.28;25.85;;;14.70;99.90;;;;;;5031961;28;20066;-72
2021/05/12 09:24:32;;;;;;;30.90;26.77;;;14.50;99.90;;;;;;5048137;28;20442;-72
2021/05/12 09:27:03;;;;;;;32.75;26.75;;;14.50;99.90;;;;;;5047977;28;20055;-72
2021/05/12 09:29:37;;;;;;;31.48;26.35;;;14.70;99.90;;;;;;5048967;28;20113;-73
2021/05/12 09:32:17;;;;;;;33.45;26.45;;;14.80;99.90;;;;;;5030940;28;20514;-72
2021/05/12 09:35:02;;;;;;;27.63;24.50;;;14.60;99.90;;;;;;5032005;28;20056;-73
2021/05/12 09:37:40;;;;;;;27.13;21.63;;;14.60;99.90;;;;;;5066681;28;20080;-73
2021/05/12 09:40:12;;;;;;;26.23;22.58;;;14.60;99.90;;;;;;5028343;28;20045;-74
2021/05/12 09:42:41;;;;;;;22.70;20.50;;;14.50;99.90;;;;;;5029936;28;20529;-73
2021/05/12 09:45:12;;;;;;;23.83;20.33;;;14.50;99.90;;;;;;5059772;28;20079;-73
2021/05/12 09:47:41;;;;;;;24.52;21.85;;;14.60;99.90;;;;;;5052514;28;20041;-73
2021/05/12 09:50:19;;;;;;;23.52;20.58;;;14.70;99.90;;;;;;5049224;28;20280;-73
2021/05/12 09:52:50;;;;;;;25.58;20.80;;;14.90;99.90;;;;;;5031529;28;20132;-73
2021/05/12 09:55:16;;;;;;;25.63;22.55;;;15.00;99.90;;;;;;5031456;28;20049;-74
2021/05/12 09:58:01;;;;;;;22.80;20.42;;;14.80;99.90;;;;;;5032259;28;20700;-72
2021/05/12 10:00:33;;;;;;;21.48;19.40;;;15.00;99.90;;;;;;5031992;28;20216;-73
2021/05/12 10:03:04;;;;;;;20.50;18.60;;;15.00;99.90;;;;;;5029410;28;20343;-72
2021/05/12 10:05:52;;;;;;;20.13;18.13;;;15.30;99.90;;;;;;5027859;28;20444;-74
2021/05/12 10:08:22;;;;;;;20.35;18.40;;;15.50;99.90;;;;;;5045698;28;20475;-73
2021/05/12 10:11:01;;;;;;;20.42;18.58;;;15.40;99.90;;;;;;5024878;28;20044;-72
2021/05/12 10:13:32;;;;;;;22.30;19.92;;;15.30;99.90;;;;;;5030539;28;20366;-74
2021/05/12 10:16:00;;;;;;;21.90;19.88;;;15.40;99.90;;;;;;5029691;28;20456;-73
2021/05/12 10:18:29;;;;;;;21.30;19.20;;;15.30;99.90;;;;;;5048957;28;20067;-74
2021/05/12 10:20:58;;;;;;;22.33;19.52;;;15.40;99.90;;;;;;5048196;28;20170;-73
2021/05/12 10:23:26;;;;;;;21.15;19.17;;;15.20;99.90;;;;;;5029857;28;20049;-73
2021/05/12 10:25:54;;;;;;;18.80;17.10;;;15.50;99.90;;;;;;5030150;28;20060;-72
2021/05/12 10:28:21;;;;;;;20.75;18.73;;;15.60;99.90;;;;;;5048284;28;20060;-73
2021/05/12 10:30:53;;;;;;;22.05;19.70;;;15.70;99.90;;;;;;5030555;28;20040;-73
2021/05/12 10:33:51;;;;;;;23.52;21.08;;;15.60;99.90;;;;;;5066049;28;20063;-72
2021/05/12 10:36:22;;;;;;;23.42;21.08;;;15.20;99.90;;;;;;5045618;28;20391;-73
2021/05/12 10:38:52;;;;;;;21.60;19.45;;;15.30;99.90;;;;;;5023944;28;20536;-73
2021/05/12 10:41:50;;;;;;;21.90;20.02;;;15.30;99.90;;;;;;5047034;28;20053;-72
2021/05/12 10:44:40;;;;;;;21.35;19.25;;;15.40;99.90;;;;;;5053010;28;20531;-73
2021/05/12 10:47:18;;;;;;;20.40;18.50;;;15.50;99.90;;;;;;5065214;28;20486;-73
2021/05/12 10:49:51;;;;;;;21.58;19.77;;;15.60;99.90;;;;;;5046159;28;20044;-72
2021/05/12 10:52:19;;;;;;;21.77;19.60;;;15.70;99.90;;;;;;5025040;28;20044;-73
2021/05/12 10:54:50;;;;;;;21.42;19.42;;;16.10;99.90;;;;;;5016950;28;20416;-73
2021/05/12 10:57:44;;;;;;;22.55;20.48;;;16.40;99.90;;;;;;5026079;28;20044;-73
2021/05/12 11:00:12;;;;;;;21.23;19.15;;;16.90;99.90;;;;;;5047028;28;20052;-74
2021/05/12 11:02:51;;;;;;;18.83;17.13;;;17.00;99.90;;;;;;5029347;28;20128;-74
2021/05/12 11:05:18;;;;;;;20.63;18.65;;;17.10;99.90;;;;;;5043064;28;20110;-73
2021/05/12 11:08:15;;;;;;;20.52;18.85;;;17.00;99.90;;;;;;5058022;28;20484;-73
2021/05/12 11:11:03;;;;;;;19.27;17.60;;;16.60;99.90;;;;;;5045385;28;20159;-72
2021/05/12 11:13:32;;;;;;;19.85;17.88;;;16.50;99.90;;;;;;5028242;28;20511;-72
2021/05/12 11:16:01;;;;;;;18.63;17.02;;;16.70;99.90;;;;;;5044725;28;20466;-73
2021/05/12 11:18:49;;;;;;;17.92;16.63;;;16.80;99.90;;;;;;5047159;28;20048;-74
2021/05/12 11:21:23;;;;;;;17.70;16.20;;;16.60;99.90;;;;;;5061304;28;20051;-73
2021/05/12 11:24:10;;;;;;;18.65;17.00;;;16.60;99.90;;;;;;5030006;28;20461;-74
2021/05/12 11:26:49;;;;;;;17.85;16.73;;;16.50;99.90;;;;;;5046623;28;20048;-75
2021/05/12 11:32:02;;;;;;;18.67;17.02;;;16.40;99.90;;;;;;5028399;28;20450;-74
2021/05/12 11:34:30;;;;;;;18.65;16.98;;;16.30;99.90;;;;;;5028518;28;20088;-74
2021/05/12 11:40:08;;;;;;;16.90;15.55;;;16.10;99.90;;;;;;5042551;28;20056;-72
2021/05/12 11:42:35;;;;;;;16.98;15.48;;;16.10;99.90;;;;;;5044511;28;20076;-74
2021/05/12 11:45:09;;;;;;;16.17;15.07;;;16.00;99.90;;;;;;5027095;28;20171;-73
2021/05/12 11:47:44;;;;;;;16.38;14.98;;;15.90;99.90;;;;;;5035737;28;20051;-73
2021/05/12 11:50:18;;;;;;;;;;;15.80;99.90;;;;;;5040424;28;20056;-73
2021/05/12 11:52:46;;;;;;;17.27;15.57;;;15.70;99.90;;;;;;5029658;28;20484;-74
2021/05/12 11:55:13;;;;;;;18.60;16.95;;;15.70;99.90;;;;;;5026111;28;20527;-74
2021/05/12 11:57:45;;;;;;;19.85;17.83;;;15.90;99.90;;;;;;5010791;28;20164;-74
2021/05/12 12:00:18;;;;;;;21.08;18.83;;;15.90;99.90;;;;;;5025292;28;20263;-72
2021/05/12 12:03:02;;;;;;;20.40;17.30;;;15.90;99.90;;;;;;5045089;28;20056;-74
2021/05/12 12:05:41;;;;;;;17.45;16.05;;;15.90;99.90;;;;;;5042818;28;20139;-73
2021/05/12 12:08:19;;;;;;;17.88;16.48;;;15.90;99.90;;;;;;5031269;28;20133;-73
2021/05/12 12:10:47;;;;;;;21.02;18.58;;;16.00;99.90;;;;;;5045481;28;20408;-72
2021/05/12 12:13:16;;;;;;;19.88;17.88;;;16.10;99.90;;;;;;5037366;28;20056;-74
2021/05/12 12:15:47;;;;;;;19.10;17.30;;;16.20;99.90;;;;;;5029125;28;20566;-72
2021/05/12 12:18:28;;;;;;;19.02;17.33;;;16.30;99.90;;;;;;5030232;28;20560;-73
2021/05/12 12:20:55;;;;;;;17.50;16.05;;;16.60;99.90;;;;;;5063637;28;20083;-74
2021/05/12 12:23:31;;;;;;;18.70;17.30;;;16.50;99.90;;;;;;5039467;28;20099;-74
2021/05/12 12:26:12;;;;;;;19.15;17.20;;;16.30;99.90;;;;;;5012225;28;20424;-74
2021/05/12 12:28:40;;;;;;;18.52;16.83;;;16.10;99.90;;;;;;5019704;28;20049;-74
2021/05/12 12:31:12;;;;;;;18.33;16.67;;;16.00;99.90;;;;;;5041264;28;20479;-74
2021/05/12 12:33:39;;;;;;;18.25;16.73;;;15.90;99.90;;;;;;5045845;28;20558;-74
2021/05/12 12:36:09;;;;;;;18.45;16.77;;;15.90;99.90;;;;;;5028323;28;20045;-75
2021/05/12 12:38:49;;;;;;;18.52;16.92;;;15.70;99.90;;;;;;5046233;28;20160;-74
2021/05/12 12:41:18;;;;;;;18.17;16.55;;;15.60;99.90;;;;;;5045187;28;20056;-75
2021/05/12 12:43:45;;;;;;;19.15;17.15;;;15.70;99.90;;;;;;5029741;28;20067;-75
2021/05/12 12:46:12;;;;;;;18.00;16.55;;;15.90;99.90;;;;;;5030245;28;20056;-75
2021/05/12 12:48:39;;;;;;;20.50;17.42;;;16.00;99.90;;;;;;5030415;28;20060;-74
2021/05/12 12:51:06;;;;;;;18.13;16.83;;;16.20;99.90;;;;;;5065930;28;20144;-74
2021/05/12 12:53:34;;;;;;;18.15;16.45;;;16.30;99.90;;;;;;5040180;28;20386;-74